Academy, New Jersey
Current Conditions -  °F | °C
As of 6:51 PM on Saturday 22 Nov 2014 (Local Time) from KEWR Reporting Station
Broken Clouds Broken Clouds  
Wind Chill:   Ceiling: 6500
Heat Index:   Visibility: 10mi
Dew Point: -7°   Wind: 12mph
Humidity: 38%   Direction: 220°SW
Pressure: 30.25"   Gusts: NA
Location:  40.7334°N, 74.1735°W
Report Text: KEWR 222351Z 22010KT 10SM SCT050 BKN065 BKN090 BKN250 06/M07 A3025 RMK AO2 SLP243 T00611072 10072 20056 56011
Loading
Personal Weather Stations






























Interactive Weather Map New forecast layout! Learn more

10-Day Weather Forecast

Advertisements
Track Severe Weather on mobile